Mont Clare, Pennsylvania
Current Conditions -  °F | °C
As of 2:54 AM on Thursday 27 Nov 2014 (Local Time) from KPTW Reporting Station
Overcast Overcast  
Wind Chill: 28°   Ceiling: 5000
Heat Index: 33°   Visibility: 10mi
Dew Point: 30°   Wind: 6mph
Humidity: 89%   Direction: 290°WNW
Pressure: 29.96"   Gusts: NA
Location:  40.14°N, 75.5°W
Report Text: KPTW 270754Z AUTO 29005KT 10SM BKN050 OVC065 01/M01 A2996 RMK AO2 SLP145 T00061011
Loading
Personal Weather Stations






























Interactive Weather Map New forecast layout! Learn more

10-Day Weather Forecast

Advertisements
Track Severe Weather on mobile